Terminal Aerodrome Forecast
Issued by NWS Buffalo, NY

Home | Current Version | Previous Version | Text Only | Print | Product List | Glossary On
Versions: 1 2 3 4 5 6 7 8 9 10 11 12 13 14 15 16 17 18 19 20 21 22 23 24 25 26
487
FTUS41 KBUF 262340
TAFBUF
TAF
KBUF 262340Z 2700/2724 22007KT P6SM FEW050 SCT250
     FM270300 18005KT P6SM FEW050
     FM271500 24011G17KT P6SM SCT045
     FM272000 23011G17KT P6SM FEW040 FEW250
     FM272200 23009KT P6SM FEW040 FEW250=

USA.gov is the U.S. government's official web portal to all federal, state and local government web resources and services.